createdAt,value
2023-05-23T00:01:49.836Z,4.80
2023-05-23T00:04:19.096Z,4.70
2023-05-23T00:06:50.651Z,5.00
2023-05-23T00:09:19.833Z,4.62
2023-05-23T00:11:46.766Z,4.60
2023-05-23T00:14:17.144Z,4.60
2023-05-23T00:16:45.273Z,4.80
2023-05-23T00:19:15.196Z,5.00
2023-05-23T00:21:48.377Z,4.30
2023-05-23T00:24:18.921Z,4.45
2023-05-23T00:26:46.449Z,4.35
2023-05-23T00:29:16.977Z,4.57
2023-05-23T00:31:46.907Z,5.05
2023-05-23T00:34:15.099Z,4.62
2023-05-23T00:36:43.759Z,4.32
2023-05-23T00:39:19.245Z,4.68
2023-05-23T00:41:52.301Z,4.78
2023-05-23T00:44:20.569Z,4.97
2023-05-23T00:46:51.578Z,5.00
2023-05-23T00:49:20.430Z,4.70
2023-05-23T00:51:49.777Z,4.25
2023-05-23T00:54:20.155Z,6.00
2023-05-23T00:56:48.431Z,4.95
2023-05-23T00:59:16.671Z,5.15
2023-05-23T01:01:46.914Z,4.93
2023-05-23T01:04:17.058Z,4.90
2023-05-23T01:06:47.276Z,5.78
2023-05-23T01:09:16.102Z,5.32
2023-05-23T01:11:54.600Z,4.80
2023-05-23T01:14:26.961Z,4.90
2023-05-23T01:16:58.470Z,5.00
2023-05-23T01:19:38.463Z,4.50
2023-05-23T01:22:13.338Z,5.10
2023-05-23T01:24:56.141Z,5.03
2023-05-23T01:27:33.715Z,4.68
2023-05-23T01:30:02.314Z,5.03
2023-05-23T01:32:29.356Z,4.78
2023-05-23T01:34:56.939Z,4.78
2023-05-23T01:37:23.804Z,4.72
2023-05-23T01:39:50.990Z,5.03
2023-05-23T01:42:18.141Z,5.15
2023-05-23T01:44:45.690Z,4.85
2023-05-23T01:47:13.467Z,5.00
2023-05-23T01:49:41.379Z,5.03
2023-05-23T01:52:12.249Z,4.90
2023-05-23T01:54:42.676Z,4.45
2023-05-23T01:57:10.944Z,5.03
2023-05-23T01:59:38.741Z,4.95
2023-05-23T02:02:06.189Z,5.18
2023-05-23T02:04:33.154Z,5.37
2023-05-23T02:07:00.024Z,5.60
2023-05-23T02:09:26.889Z,4.53
2023-05-23T02:11:54.426Z,5.62
2023-05-23T02:14:21.670Z,4.80
2023-05-23T02:16:48.601Z,4.87
2023-05-23T02:19:15.563Z,5.07
2023-05-23T02:21:42.502Z,5.37
2023-05-23T02:24:09.370Z,5.53
2023-05-23T02:26:36.235Z,4.78
2023-05-23T02:29:09.086Z,5.15
2023-05-23T02:31:36.734Z,5.07
2023-05-23T02:34:03.668Z,5.32
2023-05-23T02:36:33.543Z,5.25
2023-05-23T02:39:00.456Z,5.18
2023-05-23T02:41:27.314Z,5.22
2023-05-23T02:43:54.994Z,5.47
2023-05-23T02:46:21.964Z,5.30
2023-05-23T02:48:48.880Z,5.18
2023-05-23T02:51:15.930Z,5.15
2023-05-23T02:53:42.850Z,5.37
2023-05-23T02:56:09.928Z,5.57
2023-05-23T02:58:37.162Z,5.95
2023-05-23T03:01:06.358Z,5.50
2023-05-23T03:03:34.981Z,5.90
2023-05-23T03:06:03.670Z,5.37
2023-05-23T03:08:30.823Z,5.40
2023-05-23T03:10:57.695Z,5.62
2023-05-23T03:13:24.561Z,5.70
2023-05-23T03:15:51.662Z,5.28
2023-05-23T03:18:18.619Z,5.50
2023-05-23T03:20:45.595Z,5.85
2023-05-23T03:23:12.456Z,5.50
2023-05-23T03:25:39.578Z,4.78
2023-05-23T03:28:06.630Z,5.90
2023-05-23T03:30:33.501Z,5.03
2023-05-23T03:33:00.476Z,5.22
2023-05-23T03:35:27.356Z,5.45
2023-05-23T03:37:54.247Z,5.32
2023-05-23T03:40:22.285Z,5.70
2023-05-23T03:42:49.994Z,5.45
2023-05-23T03:45:18.431Z,5.35
2023-05-23T03:47:45.507Z,5.22
2023-05-23T03:50:12.423Z,4.75
2023-05-23T03:52:39.354Z,5.05
2023-05-23T03:55:06.911Z,5.25
2023-05-23T03:57:33.774Z,4.70
2023-05-23T04:00:06.313Z,5.00
2023-05-23T04:02:33.203Z,5.00
2023-05-23T04:05:00.850Z,4.70
2023-05-23T04:07:27.762Z,5.20
2023-05-23T04:09:54.654Z,4.80
2023-05-23T04:12:22.335Z,4.32
2023-05-23T04:14:50.356Z,5.00
2023-05-23T04:17:17.292Z,4.37
2023-05-23T04:19:44.754Z,4.80
2023-05-23T04:22:11.667Z,4.57
2023-05-23T04:24:38.616Z,4.62
2023-05-23T04:27:05.975Z,4.82
2023-05-23T04:29:33.469Z,4.90
2023-05-23T04:32:01.096Z,4.60
2023-05-23T04:34:27.999Z,4.45
2023-05-23T04:36:55.001Z,4.28
2023-05-23T04:39:21.859Z,4.53
2023-05-23T04:41:50.254Z,4.95
2023-05-23T04:44:17.168Z,5.28
2023-05-23T04:46:45.782Z,4.72
2023-05-23T04:49:13.239Z,5.03
2023-05-23T04:51:40.114Z,5.07
2023-05-23T04:54:07.114Z,4.80
2023-05-23T04:56:33.970Z,4.37
2023-05-23T04:59:00.843Z,4.25
2023-05-23T05:01:28.297Z,4.70
2023-05-23T05:03:55.283Z,4.70
2023-05-23T05:06:23.394Z,5.95
2023-05-23T05:08:50.277Z,4.87
2023-05-23T05:11:17.199Z,4.35
2023-05-23T05:13:44.114Z,4.40
2023-05-23T05:16:11.148Z,4.47
2023-05-23T05:18:39.265Z,4.50
2023-05-23T05:21:06.659Z,4.18
2023-05-23T05:23:34.406Z,4.60
2023-05-23T05:26:01.337Z,4.28
2023-05-23T05:28:28.229Z,4.65
2023-05-23T05:30:55.243Z,4.85
2023-05-23T05:33:25.442Z,4.97
2023-05-23T05:35:52.536Z,4.65
2023-05-23T05:38:19.729Z,4.37
2023-05-23T05:40:46.726Z,4.87
2023-05-23T05:43:13.708Z,5.00
2023-05-23T05:45:40.999Z,4.20
2023-05-23T05:48:08.488Z,4.50
2023-05-23T05:50:35.379Z,4.20
2023-05-23T05:53:02.282Z,4.55
2023-05-23T05:55:29.270Z,4.68
2023-05-23T05:57:56.220Z,4.47
2023-05-23T06:00:30.500Z,4.62
2023-05-23T06:03:02.776Z,4.72
2023-05-23T06:05:30.177Z,5.18
2023-05-23T06:07:57.048Z,5.20
2023-05-23T06:10:24.823Z,5.10
2023-05-23T06:12:51.689Z,4.78
2023-05-23T06:15:19.238Z,4.75
2023-05-23T06:17:46.149Z,5.20
2023-05-23T06:20:13.309Z,4.68
2023-05-23T06:22:40.327Z,4.95
2023-05-23T06:25:07.868Z,4.87
2023-05-23T06:27:34.790Z,4.80
2023-05-23T06:30:01.638Z,4.35
2023-05-23T06:32:28.540Z,5.05
2023-05-23T06:34:55.495Z,4.75
2023-05-23T06:37:22.407Z,4.78
2023-05-23T06:39:49.769Z,4.53
2023-05-23T06:42:16.755Z,5.22
2023-05-23T06:44:43.619Z,5.12
2023-05-23T06:47:10.564Z,4.60
2023-05-23T06:49:37.478Z,4.45
2023-05-23T06:52:04.502Z,4.80
2023-05-23T06:54:31.445Z,4.65
2023-05-23T06:57:01.108Z,4.70
2023-05-23T06:59:29.044Z,5.40
2023-05-23T07:01:56.022Z,4.82
2023-05-23T07:04:22.890Z,4.95
2023-05-23T07:06:50.462Z,4.68
2023-05-23T07:09:17.615Z,4.62
2023-05-23T07:11:46.977Z,4.68
2023-05-23T07:14:13.969Z,4.35
2023-05-23T07:16:40.983Z,4.60
2023-05-23T07:19:08.059Z,4.93
2023-05-23T07:21:34.931Z,4.70
2023-05-23T07:24:02.268Z,5.03
2023-05-23T07:26:29.195Z,4.72
2023-05-23T07:28:56.123Z,4.62
2023-05-23T07:31:23.279Z,5.05
2023-05-23T07:33:50.269Z,5.00
2023-05-23T07:36:22.656Z,5.30
2023-05-23T07:38:49.654Z,4.87
2023-05-23T07:41:16.581Z,4.53
2023-05-23T07:43:43.461Z,5.18
2023-05-23T07:46:10.341Z,4.78
2023-05-23T07:48:37.308Z,4.75
2023-05-23T07:51:04.400Z,4.78
2023-05-23T07:53:31.330Z,4.65
2023-05-23T07:55:58.223Z,4.72
2023-05-23T07:58:27.169Z,4.80
2023-05-23T08:00:54.272Z,5.00
2023-05-23T08:03:21.405Z,4.57
2023-05-23T08:05:48.277Z,5.25
2023-05-23T08:08:15.134Z,5.25
2023-05-23T08:10:42.311Z,4.90
2023-05-23T08:13:10.357Z,4.82
2023-05-23T08:15:37.427Z,4.97
2023-05-23T08:18:05.395Z,5.05
2023-05-23T08:20:32.444Z,5.00
2023-05-23T08:23:02.655Z,5.00
2023-05-23T08:25:33.285Z,4.85
2023-05-23T08:28:01.421Z,4.85
2023-05-23T08:30:29.191Z,4.95
2023-05-23T08:32:57.219Z,4.80
2023-05-23T08:35:24.553Z,5.82
2023-05-23T08:37:52.561Z,5.40
2023-05-23T08:40:24.195Z,5.32
2023-05-23T08:42:51.628Z,5.28
2023-05-23T08:45:18.940Z,5.10
2023-05-23T08:47:47.016Z,5.20
2023-05-23T08:50:16.729Z,5.07
2023-05-23T08:52:51.014Z,4.87
2023-05-23T08:55:18.010Z,5.10
2023-05-23T08:57:45.816Z,5.10
2023-05-23T09:00:15.232Z,5.00
2023-05-23T09:02:44.288Z,5.28
2023-05-23T09:05:11.417Z,4.87
2023-05-23T09:07:38.972Z,5.43
2023-05-23T09:10:07.854Z,5.10
2023-05-23T09:12:37.355Z,5.10
2023-05-23T09:15:10.975Z,4.93
2023-05-23T09:17:40.711Z,5.00
2023-05-23T09:20:14.860Z,4.57
2023-05-23T09:22:46.453Z,4.95
2023-05-23T09:25:13.433Z,4.82
2023-05-23T09:27:40.534Z,4.70
2023-05-23T09:30:12.351Z,5.00
2023-05-23T09:32:39.757Z,5.47
2023-05-23T09:35:08.074Z,4.85
2023-05-23T09:37:36.834Z,4.97
2023-05-23T09:40:11.201Z,5.45
2023-05-23T09:42:46.139Z,5.10
2023-05-23T09:45:17.367Z,5.30
2023-05-23T09:47:53.971Z,4.53
2023-05-23T09:50:21.538Z,5.10
2023-05-23T09:52:48.684Z,5.00
2023-05-23T09:55:15.749Z,4.97
2023-05-23T09:57:44.109Z,4.93
2023-05-23T10:00:15.290Z,5.00
2023-05-23T10:03:00.587Z,4.93
2023-05-23T10:05:31.062Z,5.00
2023-05-23T10:08:01.445Z,4.70
2023-05-23T10:10:32.045Z,4.62
2023-05-23T10:13:01.969Z,4.90
2023-05-23T10:15:31.767Z,4.90
2023-05-23T10:18:18.766Z,4.78
2023-05-23T10:23:16.252Z,4.45
2023-05-23T10:25:44.692Z,4.50
2023-05-23T10:28:12.620Z,4.68
2023-05-23T10:30:40.033Z,4.78
2023-05-23T10:33:09.058Z,4.62
2023-05-23T10:35:38.895Z,4.97
2023-05-23T10:38:19.021Z,4.93
2023-05-23T10:41:06.016Z,4.95
2023-05-23T10:46:15.980Z,5.05
2023-05-23T10:48:44.360Z,4.97
2023-05-23T10:51:12.747Z,4.60
2023-05-23T10:53:41.949Z,5.10
2023-05-23T10:56:10.647Z,4.55
2023-05-23T10:58:39.826Z,4.95
2023-05-23T11:01:09.097Z,4.60
2023-05-23T11:03:46.838Z,4.65
2023-05-23T11:06:38.932Z,5.25
2023-05-23T11:09:07.937Z,4.68
2023-05-23T11:11:54.928Z,4.62
2023-05-23T11:14:40.958Z,4.80
2023-05-23T11:17:13.780Z,4.47
2023-05-23T11:19:41.754Z,4.62
2023-05-23T11:22:09.875Z,4.45
2023-05-23T11:24:53.013Z,4.53
2023-05-23T11:27:32.298Z,4.62
2023-05-23T11:30:00.728Z,4.22
2023-05-23T11:32:31.600Z,4.25
2023-05-23T11:35:02.747Z,4.28
2023-05-23T11:37:30.606Z,4.55
2023-05-23T11:39:58.128Z,4.50
2023-05-23T11:42:25.219Z,4.03
2023-05-23T11:44:53.026Z,4.10
2023-05-23T11:47:20.269Z,3.62
2023-05-23T11:49:47.552Z,3.70
2023-05-23T11:52:15.066Z,3.80
2023-05-23T11:54:44.864Z,3.95
2023-05-23T11:57:14.087Z,3.58
2023-05-23T11:59:41.056Z,3.62
2023-05-23T12:02:08.626Z,4.60
2023-05-23T12:04:37.370Z,3.75
2023-05-23T12:07:07.846Z,4.30
2023-05-23T12:09:44.649Z,3.62
2023-05-23T12:12:12.938Z,3.58
2023-05-23T12:14:44.926Z,3.90
2023-05-23T12:17:13.201Z,3.83
2023-05-23T12:19:41.102Z,4.20
2023-05-23T12:22:08.576Z,4.28
2023-05-23T12:24:35.593Z,4.03
2023-05-23T12:27:03.790Z,4.10
2023-05-23T12:29:34.779Z,3.75
2023-05-23T12:32:03.503Z,3.87
2023-05-23T12:34:30.428Z,3.60
2023-05-23T12:37:10.295Z,3.58
2023-05-23T12:39:45.549Z,3.83
2023-05-23T12:42:12.750Z,3.80
2023-05-23T12:44:41.885Z,4.25
2023-05-23T12:47:08.813Z,3.87
2023-05-23T12:49:37.324Z,4.12
2023-05-23T12:52:04.237Z,4.10
2023-05-23T12:54:31.200Z,4.00
2023-05-23T12:56:58.105Z,4.15
2023-05-23T12:59:27.334Z,3.87
2023-05-23T13:01:55.878Z,4.20
2023-05-23T13:04:22.855Z,4.10
2023-05-23T13:06:49.816Z,3.12
2023-05-23T13:09:18.077Z,3.25
2023-05-23T13:11:45.063Z,3.80
2023-05-23T13:14:13.810Z,3.78
2023-05-23T13:16:41.028Z,4.00
2023-05-23T13:19:07.968Z,4.05
2023-05-23T13:21:34.907Z,4.37
2023-05-23T13:24:01.803Z,4.20
2023-05-23T13:26:28.996Z,4.32
2023-05-23T13:28:55.935Z,4.47
2023-05-23T13:31:22.888Z,4.50
2023-05-23T13:33:49.822Z,3.78
2023-05-23T13:36:16.752Z,4.10
2023-05-23T13:38:43.675Z,4.10
2023-05-23T13:41:10.684Z,3.40
2023-05-23T13:43:37.655Z,3.37
2023-05-23T13:46:04.652Z,3.20
2023-05-23T13:48:31.747Z,4.03
2023-05-23T13:50:59.098Z,3.53
2023-05-23T13:53:26.208Z,3.67
2023-05-23T13:55:53.417Z,4.20
2023-05-23T13:58:20.713Z,4.00
2023-05-23T14:00:47.800Z,3.62
2023-05-23T14:03:15.884Z,4.10
2023-05-23T14:05:42.945Z,4.22
2023-05-23T14:08:11.472Z,4.25
2023-05-23T14:10:38.475Z,4.72
2023-05-23T14:13:07.058Z,3.97
2023-05-23T14:15:34.913Z,3.78
2023-05-23T14:18:02.252Z,4.37
2023-05-23T14:20:30.071Z,3.85
2023-05-23T14:22:57.175Z,4.03
2023-05-23T14:25:24.067Z,4.20
2023-05-23T14:27:50.921Z,4.18
2023-05-23T14:30:17.902Z,4.25
2023-05-23T14:32:44.889Z,4.40
2023-05-23T14:35:12.199Z,4.10
2023-05-23T14:37:39.456Z,4.37
2023-05-23T14:40:10.204Z,4.60
2023-05-23T14:42:37.256Z,4.50
2023-05-23T14:45:05.045Z,4.70
2023-05-23T14:47:32.741Z,4.85
2023-05-23T14:49:59.668Z,4.37
2023-05-23T14:52:26.957Z,4.50
2023-05-23T14:54:53.902Z,4.72
2023-05-23T14:57:20.876Z,4.45
2023-05-23T14:59:47.909Z,4.43
2023-05-23T15:02:14.800Z,4.30
2023-05-23T15:04:41.995Z,4.37
2023-05-23T15:07:09.089Z,4.55
2023-05-23T15:09:36.624Z,4.47
2023-05-23T15:12:05.422Z,4.68
2023-05-23T15:14:32.381Z,4.20
2023-05-23T15:17:07.814Z,4.68
2023-05-23T15:19:36.485Z,4.55
2023-05-23T15:22:05.379Z,4.50
2023-05-23T15:24:32.446Z,4.37
2023-05-23T15:27:11.671Z,4.50
2023-05-23T15:29:47.011Z,4.65
2023-05-23T15:32:14.169Z,4.78
2023-05-23T15:34:41.143Z,5.20
2023-05-23T15:37:08.066Z,4.90
2023-05-23T15:39:35.136Z,4.43
2023-05-23T15:42:02.198Z,4.43
2023-05-23T15:44:29.139Z,4.85
2023-05-23T15:46:56.235Z,4.90
2023-05-23T15:49:26.384Z,5.00
2023-05-23T15:51:55.442Z,5.00
2023-05-23T15:54:22.728Z,5.12
2023-05-23T15:56:49.655Z,4.93
2023-05-23T15:59:16.531Z,5.37
2023-05-23T16:01:43.515Z,5.40
2023-05-23T16:04:10.507Z,5.60
2023-05-23T16:06:38.453Z,5.25
2023-05-23T16:09:06.425Z,5.15
2023-05-23T16:11:33.331Z,4.70
2023-05-23T16:14:00.225Z,5.10
2023-05-23T16:16:27.162Z,4.90
2023-05-23T16:18:54.148Z,4.72
2023-05-23T16:21:21.159Z,5.65
2023-05-23T16:23:51.136Z,4.80
2023-05-23T16:26:19.120Z,5.20
2023-05-23T16:28:46.060Z,5.35
2023-05-23T16:31:14.698Z,4.93
2023-05-23T16:33:41.663Z,4.75
2023-05-23T16:36:08.629Z,5.15
2023-05-23T16:38:35.596Z,5.72
2023-05-23T16:41:02.506Z,5.37
2023-05-23T16:43:29.424Z,5.45
2023-05-23T16:45:56.405Z,5.30
2023-05-23T16:48:23.351Z,5.72
2023-05-23T16:50:50.247Z,5.80
2023-05-23T16:53:17.148Z,5.22
2023-05-23T16:55:44.245Z,5.30
2023-05-23T16:58:12.391Z,5.53
2023-05-23T17:00:39.792Z,4.90
2023-05-23T17:03:07.027Z,5.00
2023-05-23T17:05:34.601Z,5.47
2023-05-23T17:08:02.081Z,5.03
2023-05-23T17:10:29.124Z,5.25
2023-05-23T17:12:56.092Z,5.07
2023-05-23T17:15:23.041Z,5.43
2023-05-23T17:17:50.014Z,5.97
2023-05-23T17:20:17.032Z,5.10
2023-05-23T17:22:43.969Z,5.60
2023-05-23T17:25:11.088Z,4.70
2023-05-23T17:27:37.954Z,5.15
2023-05-23T17:30:05.741Z,5.25
2023-05-23T17:32:32.696Z,5.35
2023-05-23T17:34:59.782Z,5.32
2023-05-23T17:37:26.698Z,5.45
2023-05-23T17:39:56.773Z,5.50
2023-05-23T17:42:25.089Z,5.70
2023-05-23T17:44:51.960Z,5.97
2023-05-23T17:47:19.053Z,5.93
2023-05-23T17:49:45.970Z,5.25
2023-05-23T17:52:15.102Z,5.35
2023-05-23T17:54:42.391Z,4.93
2023-05-23T17:57:09.376Z,5.80
2023-05-23T17:59:36.530Z,5.15
2023-05-23T18:02:04.936Z,4.78
2023-05-23T18:04:31.983Z,4.85
2023-05-23T18:06:58.997Z,4.78
2023-05-23T18:09:25.877Z,4.53
2023-05-23T18:11:52.931Z,4.85
2023-05-23T18:14:19.909Z,4.30
2023-05-23T18:16:46.846Z,4.50
2023-05-23T18:19:13.894Z,4.70
2023-05-23T18:21:41.005Z,4.40
2023-05-23T18:24:09.159Z,5.03
2023-05-23T18:26:40.339Z,3.78
2023-05-23T18:29:07.251Z,4.68
2023-05-23T18:31:34.110Z,4.72
2023-05-23T18:34:01.263Z,4.70
2023-05-23T18:36:28.181Z,4.68
2023-05-23T18:38:55.113Z,4.93
2023-05-23T18:41:22.566Z,5.03
2023-05-23T18:43:50.120Z,4.78
2023-05-23T18:46:17.365Z,4.60
2023-05-23T18:48:44.338Z,4.50
2023-05-23T18:51:12.511Z,4.78
2023-05-23T18:53:42.206Z,4.68
2023-05-23T18:56:09.572Z,4.65
2023-05-23T18:58:36.459Z,5.10
2023-05-23T19:01:04.084Z,4.75
2023-05-23T19:03:32.235Z,4.50
2023-05-23T19:06:02.300Z,4.55
2023-05-23T19:08:32.903Z,4.20
2023-05-23T19:11:00.508Z,4.37
2023-05-23T19:13:27.765Z,4.47
2023-05-23T19:15:54.719Z,4.32
2023-05-23T19:18:21.634Z,3.87
2023-05-23T19:20:51.671Z,4.10
2023-05-23T19:23:21.097Z,3.95
2023-05-23T19:25:48.060Z,4.50
2023-05-23T19:28:17.750Z,4.18
2023-05-23T19:30:44.866Z,3.97
2023-05-23T19:33:11.968Z,4.20
2023-05-23T19:35:39.085Z,4.32
2023-05-23T19:38:05.984Z,4.35
2023-05-23T19:40:32.904Z,4.87
2023-05-23T19:42:59.821Z,4.62
2023-05-23T19:45:27.063Z,4.57
2023-05-23T19:47:54.026Z,4.62
2023-05-23T19:50:22.221Z,4.72
2023-05-23T19:52:49.118Z,5.10
2023-05-23T19:55:16.131Z,4.70
2023-05-23T19:57:43.035Z,4.40
2023-05-23T20:00:10.640Z,4.47
2023-05-23T20:02:37.655Z,3.90
2023-05-23T20:05:05.666Z,3.92
2023-05-23T20:07:32.544Z,4.57
2023-05-23T20:09:59.501Z,4.07
2023-05-23T20:12:26.876Z,3.97
2023-05-23T20:14:53.801Z,4.43
2023-05-23T20:17:20.838Z,4.28
2023-05-23T20:19:47.832Z,4.80
2023-05-23T20:22:14.841Z,5.07
2023-05-23T20:24:41.739Z,4.37
2023-05-23T20:27:08.627Z,4.57
2023-05-23T20:29:35.579Z,4.70
2023-05-23T20:32:02.477Z,4.78
2023-05-23T20:34:29.451Z,4.50
2023-05-23T20:36:57.672Z,4.28
2023-05-23T20:39:24.592Z,5.00
2023-05-23T20:41:51.512Z,4.50
2023-05-23T20:44:18.538Z,4.62
2023-05-23T20:46:45.671Z,4.80
2023-05-23T20:49:12.636Z,4.80
2023-05-23T20:51:39.532Z,4.40
2023-05-23T20:54:07.255Z,4.50
2023-05-23T20:56:34.222Z,4.50
2023-05-23T20:59:01.228Z,4.55
2023-05-23T21:01:28.730Z,5.10
2023-05-23T21:03:56.137Z,4.10
2023-05-23T21:06:23.217Z,4.30
2023-05-23T21:08:50.116Z,4.57
2023-05-23T21:11:17.021Z,4.20
2023-05-23T21:13:44.000Z,4.50
2023-05-23T21:16:14.645Z,4.35
2023-05-23T21:18:41.817Z,4.35
2023-05-23T21:21:08.764Z,4.07
2023-05-23T21:23:35.671Z,4.47
2023-05-23T21:26:02.932Z,5.20
2023-05-23T21:28:29.845Z,4.43
2023-05-23T21:30:57.210Z,5.15
2023-05-23T21:33:24.189Z,4.30
2023-05-23T21:35:51.422Z,5.22
2023-05-23T21:38:18.314Z,4.55
2023-05-23T21:40:45.282Z,4.87
2023-05-23T21:43:12.202Z,4.53
2023-05-23T21:45:39.099Z,4.78
2023-05-23T21:48:06.195Z,4.47
2023-05-23T21:50:33.135Z,4.93
2023-05-23T21:53:00.037Z,4.87
2023-05-23T21:55:27.464Z,4.82
2023-05-23T21:57:54.368Z,5.18
2023-05-23T22:00:22.844Z,4.80
2023-05-23T22:02:49.883Z,5.80
2023-05-23T22:05:17.306Z,5.10
2023-05-23T22:07:44.192Z,5.10
2023-05-23T22:10:11.456Z,5.07
2023-05-23T22:12:38.921Z,5.05
2023-05-23T22:15:07.445Z,4.87
2023-05-23T22:17:34.788Z,4.90
2023-05-23T22:20:02.494Z,4.90
2023-05-23T22:22:29.382Z,4.87
2023-05-23T22:24:56.416Z,5.22
2023-05-23T22:27:23.391Z,4.70
2023-05-23T22:29:50.385Z,4.82
2023-05-23T22:32:17.299Z,5.47
2023-05-23T22:34:45.615Z,5.00
2023-05-23T22:37:12.540Z,5.50
2023-05-23T22:39:39.396Z,5.53
2023-05-23T22:42:06.521Z,5.40
2023-05-23T22:44:33.549Z,5.40
2023-05-23T22:47:00.484Z,5.85
2023-05-23T22:49:30.217Z,6.03
2023-05-23T22:51:57.924Z,5.53
2023-05-23T22:54:24.878Z,5.45
2023-05-23T22:56:51.851Z,5.75
2023-05-23T22:59:18.745Z,5.18
2023-05-23T23:01:46.569Z,4.65
2023-05-23T23:04:13.470Z,5.90
2023-05-23T23:06:43.424Z,4.90
2023-05-23T23:09:10.409Z,5.12
2023-05-23T23:11:37.306Z,4.87
2023-05-23T23:14:04.185Z,4.62
2023-05-23T23:16:31.166Z,5.37
2023-05-23T23:18:58.955Z,5.37
2023-05-23T23:21:26.007Z,5.45
2023-05-23T23:23:52.894Z,5.70
2023-05-23T23:26:19.849Z,6.20
2023-05-23T23:28:46.761Z,6.20
2023-05-23T23:31:13.722Z,5.93
2023-05-23T23:33:40.840Z,5.68
2023-05-23T23:36:07.931Z,6.28
2023-05-23T23:38:34.820Z,5.60
2023-05-23T23:41:01.686Z,6.03
2023-05-23T23:43:28.612Z,5.70
2023-05-23T23:45:55.576Z,5.93
2023-05-23T23:48:22.527Z,5.75
2023-05-23T23:50:49.454Z,5.93
2023-05-23T23:53:17.021Z,5.53
2023-05-23T23:55:43.890Z,5.65
2023-05-23T23:58:10.758Z,5.68
